Time,TemperatureF,DewpointF,PressureIn,WindDirection,WindDirectionDegrees,WindSpeedMPH,WindSpeedGustMPH,Humidity,HourlyPrecipIn,Conditions,Clouds,dailyrainin,SoftwareType,DateUTC
2013-01-08 00:01:00,29.8,24.7,30.14,SSW,193,5.8,5.8,81,0.00,CLR,,0.00,WeatherDisplay:10.37,2013-01-08 06:01:00,
2013-01-08 00:06:00,29.8,24.7,30.14,SW,217,4.0,4.0,81,0.00,CLR,,0.00,WeatherDisplay:10.37,2013-01-08 06:06:00,
2013-01-08 00:11:00,29.7,24.6,30.14,WSW,244,6.0,6.0,81,0.00,CLR,,0.00,WeatherDisplay:10.37,2013-01-08 06:11:00,
2013-01-08 00:16:00,29.7,24.6,30.15,SW,225,5.8,5.8,81,0.00,CLR,,0.00,WeatherDisplay:10.37,2013-01-08 06:16:00,
2013-01-08 00:21:00,29.3,24.2,30.15,SW,223,4.6,4.6,81,0.00,CLR,,0.00,WeatherDisplay:10.37,2013-01-08 06:21:00,
2013-01-08 00:26:00,29.1,24.0,30.15,SW,227,4.6,4.6,81,0.00,CLR,,0.00,WeatherDisplay:10.37,2013-01-08 06:26:00,
2013-01-08 00:32:00,28.9,23.8,30.15,SW,229,4.6,4.6,81,0.00,CLR,,0.00,WeatherDisplay:10.37,2013-01-08 06:32:00,
2013-01-08 00:37:00,28.8,23.7,30.15,SW,229,4.6,4.6,81,0.00,CLR,,0.00,WeatherDisplay:10.37,2013-01-08 06:37:00,
2013-01-08 00:42:00,28.6,23.5,30.15,SW,225,3.5,3.5,81,0.00,CLR,,0.00,WeatherDisplay:10.37,2013-01-08 06:42:00,
2013-01-08 00:47:00,28.3,23.2,30.15,SW,226,0.0,0.0,81,0.00,CLR,,0.00,WeatherDisplay:10.37,2013-01-08 06:47:00,
2013-01-08 00:52:00,28.0,22.9,30.15,SW,225,0.0,0.0,81,0.00,CLR,,0.00,WeatherDisplay:10.37,2013-01-08 06:52:00,
2013-01-08 00:57:00,28.0,23.2,30.15,SW,225,0.0,0.0,82,0.00,CLR,,0.00,WeatherDisplay:10.37,2013-01-08 06:57:00,
2013-01-08 01:03:00,27.8,23.0,30.15,SW,226,0.0,0.0,82,0.00,CLR,,0.00,WeatherDisplay:10.37,2013-01-08 07:03:00,
2013-01-08 01:08:00,27.5,22.7,30.15,SW,226,0.0,0.0,82,0.00,CLR,,0.00,WeatherDisplay:10.37,2013-01-08 07:08:00,
2013-01-08 01:13:00,27.5,22.7,30.15,SW,225,5.8,5.8,82,0.00,CLR,,0.00,WeatherDisplay:10.37,2013-01-08 07:13:00,
2013-01-08 01:18:00,27.7,23.2,30.15,SW,223,3.5,3.5,83,0.00,CLR,,0.00,WeatherDisplay:10.37,2013-01-08 07:18:00,
2013-01-08 01:23:00,27.8,23.3,30.14,SW,222,3.5,3.5,83,0.00,CLR,,0.00,WeatherDisplay:10.37,2013-01-08 07:23:00,
2013-01-08 01:29:00,27.8,23.3,30.15,SW,222,0.0,0.0,83,0.00,CLR,,0.00,WeatherDisplay:10.37,2013-01-08 07:29:00,
2013-01-08 01:34:00,27.7,23.2,30.15,SW,222,0.0,0.0,83,0.00,CLR,,0.00,WeatherDisplay:10.37,2013-01-08 07:34:00,
2013-01-08 01:39:00,27.6,23.1,30.14,SW,222,0.0,0.0,83,0.00,CLR,,0.00,WeatherDisplay:10.37,2013-01-08 07:39:00,
2013-01-08 01:45:00,27.6,23.1,30.15,SW,222,0.0,0.0,83,0.00,CLR,,0.00,WeatherDisplay:10.37,2013-01-08 07:45:00,
2013-01-08 01:50:00,27.7,23.2,30.15,SW,222,0.0,0.0,83,0.00,CLR,,0.00,WeatherDisplay:10.37,2013-01-08 07:50:00,
2013-01-08 01:55:00,27.8,23.3,30.15,SW,221,0.0,0.0,83,0.00,CLR,,0.00,WeatherDisplay:10.37,2013-01-08 07:55:00,
2013-01-08 02:00:00,27.8,23.3,30.14,SW,221,0.0,0.0,83,0.00,CLR,,0.00,WeatherDisplay:10.37,2013-01-08 08:00:00,
2013-01-08 02:05:00,27.8,23.3,30.15,SW,215,0.0,0.0,83,0.00,CLR,,0.00,WeatherDisplay:10.37,2013-01-08 08:05:00,
2013-01-08 02:10:00,27.8,23.3,30.15,SW,215,0.0,0.0,83,0.00,CLR,,0.00,WeatherDisplay:10.37,2013-01-08 08:10:00,
2013-01-08 02:16:00,27.9,23.4,30.15,SW,216,1.0,1.0,83,0.00,CLR,,0.00,WeatherDisplay:10.37,2013-01-08 08:16:00,
2013-01-08 02:21:00,28.0,23.5,30.15,SW,215,0.0,0.1,83,0.00,CLR,,0.00,WeatherDisplay:10.37,2013-01-08 08:21:00,
2013-01-08 02:26:00,28.0,23.5,30.15,SW,214,0.0,0.0,83,0.00,CLR,,0.00,WeatherDisplay:10.37,2013-01-08 08:26:00,
2013-01-08 02:31:00,28.0,23.5,30.16,SW,215,0.0,0.0,83,0.00,CLR,,0.00,WeatherDisplay:10.37,2013-01-08 08:31:00,
2013-01-08 02:36:00,28.1,23.6,30.16,SW,217,0.0,0.0,83,0.00,CLR,,0.00,WeatherDisplay:10.37,2013-01-08 08:36:00,
2013-01-08 02:41:00,28.0,23.5,30.16,SW,217,0.0,0.0,83,0.00,CLR,,0.00,WeatherDisplay:10.37,2013-01-08 08:41:00,
2013-01-08 02:46:00,27.9,23.4,30.16,SW,217,0.0,0.0,83,0.00,CLR,,0.00,WeatherDisplay:10.37,2013-01-08 08:46:00,
2013-01-08 02:51:00,27.8,23.3,30.15,SW,217,0.0,0.0,83,0.00,CLR,,0.00,WeatherDisplay:10.37,2013-01-08 08:51:00,
2013-01-08 02:56:00,27.6,23.1,30.16,SW,217,0.0,0.0,83,0.00,CLR,,0.00,WeatherDisplay:10.37,2013-01-08 08:56:00,
2013-01-08 03:02:00,27.6,23.1,30.15,SW,217,0.0,0.0,83,0.00,CLR,,0.00,WeatherDisplay:10.37,2013-01-08 09:02:00,
2013-01-08 03:07:00,27.6,23.1,30.15,SW,217,0.0,0.0,83,0.00,CLR,,0.00,WeatherDisplay:10.37,2013-01-08 09:07:00,
2013-01-08 03:12:00,27.5,23.0,30.15,SW,217,0.0,0.0,83,0.00,CLR,,0.00,WeatherDisplay:10.37,2013-01-08 09:12:00,
2013-01-08 03:17:00,27.5,23.3,30.15,SW,217,0.0,0.0,84,0.00,CLR,,0.00,WeatherDisplay:10.37,2013-01-08 09:17:00,
2013-01-08 03:22:00,27.4,23.2,30.15,SW,217,0.0,0.0,84,0.00,CLR,,0.00,WeatherDisplay:10.37,2013-01-08 09:22:00,
2013-01-08 03:27:00,27.3,22.8,30.15,SW,215,0.0,0.0,83,0.00,CLR,,0.00,WeatherDisplay:10.37,2013-01-08 09:27:00,
2013-01-08 03:33:00,27.3,23.1,30.15,SW,215,0.0,0.0,84,0.00,CLR,,0.00,WeatherDisplay:10.37,2013-01-08 09:33:00,
2013-01-08 03:38:00,27.2,23.0,30.15,SW,215,0.0,0.0,84,0.00,CLR,,0.00,WeatherDisplay:10.37,2013-01-08 09:38:00,
2013-01-08 03:43:00,27.1,22.9,30.15,SW,215,0.0,0.0,84,0.00,CLR,,0.00,WeatherDisplay:10.37,2013-01-08 09:43:00,
2013-01-08 03:48:00,27.0,22.8,30.16,SW,215,0.0,0.0,84,0.00,CLR,,0.00,WeatherDisplay:10.37,2013-01-08 09:48:00,
2013-01-08 03:53:00,27.0,22.8,30.15,SW,215,0.0,0.0,84,0.00,CLR,,0.00,WeatherDisplay:10.37,2013-01-08 09:53:00,
2013-01-08 03:58:00,26.9,22.7,30.15,SW,215,0.0,0.0,84,0.00,CLR,,0.00,WeatherDisplay:10.37,2013-01-08 09:58:00,
2013-01-08 04:04:00,26.9,22.7,30.15,SW,215,0.0,0.0,84,0.00,CLR,,0.00,WeatherDisplay:10.37,2013-01-08 10:04:00,
2013-01-08 04:09:00,26.9,22.7,30.16,SW,215,0.0,0.0,84,0.00,CLR,,0.00,WeatherDisplay:10.37,2013-01-08 10:09:00,
2013-01-08 04:14:00,27.0,22.8,30.15,SW,215,0.0,0.0,84,0.00,CLR,,0.00,WeatherDisplay:10.37,2013-01-08 10:14:00,
2013-01-08 04:19:00,27.2,23.0,30.15,SSE,165,0.0,0.0,84,0.00,CLR,,0.00,WeatherDisplay:10.37,2013-01-08 10:19:00,
2013-01-08 04:24:00,27.1,22.9,30.14,SSE,165,0.0,0.0,84,0.00,CLR,,0.00,WeatherDisplay:10.37,2013-01-08 10:24:00,
2013-01-08 04:29:00,27.1,22.9,30.14,SSE,166,0.0,0.0,84,0.00,CLR,,0.00,WeatherDisplay:10.37,2013-01-08 10:29:00,
2013-01-08 04:35:00,27.1,22.9,30.14,South,172,0.0,0.0,84,0.00,CLR,,0.00,WeatherDisplay:10.37,2013-01-08 10:35:00,
2013-01-08 04:40:00,27.1,22.9,30.14,South,171,0.0,0.0,84,0.00,CLR,,0.00,WeatherDisplay:10.37,2013-01-08 10:40:00,
2013-01-08 04:45:00,27.0,22.8,30.14,South,172,0.0,0.0,84,0.00,CLR,,0.00,WeatherDisplay:10.37,2013-01-08 10:45:00,
2013-01-08 04:50:00,26.9,22.7,30.14,South,173,0.0,0.0,84,0.00,CLR,,0.00,WeatherDisplay:10.37,2013-01-08 10:50:00,
2013-01-08 04:56:00,26.8,22.6,30.14,South,173,0.0,0.0,84,0.00,CLR,,0.00,WeatherDisplay:10.37,2013-01-08 10:56:00,
2013-01-08 05:01:00,26.9,23.0,30.15,South,169,3.5,3.5,85,0.00,CLR,,0.00,WeatherDisplay:10.37,2013-01-08 11:01:00,
2013-01-08 05:06:00,27.0,23.1,30.14,South,189,0.0,0.0,85,0.00,CLR,,0.00,WeatherDisplay:10.37,2013-01-08 11:06:00,
2013-01-08 05:11:00,27.0,23.1,30.15,South,189,0.0,0.0,85,0.00,CLR,,0.00,WeatherDisplay:10.37,2013-01-08 11:11:00,
2013-01-08 05:16:00,27.0,23.1,30.15,South,188,0.0,0.0,85,0.00,CLR,,0.00,WeatherDisplay:10.37,2013-01-08 11:16:00,
2013-01-08 05:21:00,27.0,23.1,30.15,South,188,0.0,0.0,85,0.00,CLR,,0.00,WeatherDisplay:10.37,2013-01-08 11:21:00,
2013-01-08 05:26:00,26.8,22.6,30.15,SSE,166,0.0,0.0,84,0.00,CLR,,0.00,WeatherDisplay:10.37,2013-01-08 11:26:00,
2013-01-08 05:32:00,26.8,22.6,30.15,South,171,2.0,2.0,84,0.00,CLR,,0.00,WeatherDisplay:10.37,2013-01-08 11:32:00,
2013-01-08 05:37:00,26.9,23.0,30.15,South,178,3.5,3.5,85,0.00,CLR,,0.00,WeatherDisplay:10.37,2013-01-08 11:37:00,
2013-01-08 05:42:00,26.8,22.9,30.15,South,178,0.0,0.0,85,0.00,CLR,,0.00,WeatherDisplay:10.37,2013-01-08 11:42:00,
2013-01-08 05:47:00,26.9,23.0,30.15,South,178,1.2,0.0,85,0.00,CLR,,0.00,WeatherDisplay:10.37,2013-01-08 11:47:00,
2013-01-08 05:52:00,26.9,23.0,30.15,South,178,0.0,0.0,85,0.00,CLR,,0.00,WeatherDisplay:10.37,2013-01-08 11:52:00,
2013-01-08 05:58:00,26.9,23.0,30.15,South,178,0.0,0.0,85,0.00,CLR,,0.00,WeatherDisplay:10.37,2013-01-08 11:58:00,
2013-01-08 06:03:00,27.0,23.1,30.16,South,172,0.0,1.4,85,0.00,CLR,,0.00,WeatherDisplay:10.37,2013-01-08 12:03:00,
2013-01-08 06:08:00,27.0,23.1,30.16,South,174,3.5,3.5,85,0.00,CLR,,0.00,WeatherDisplay:10.37,2013-01-08 12:08:00,
2013-01-08 06:13:00,27.0,22.8,30.16,South,169,0.0,0.0,84,0.00,CLR,,0.00,WeatherDisplay:10.37,2013-01-08 12:13:00,
2013-01-08 06:18:00,26.9,22.7,30.16,South,172,0.0,0.0,84,0.00,CLR,,0.00,WeatherDisplay:10.37,2013-01-08 12:18:00,
2013-01-08 06:23:00,26.9,22.7,30.16,South,177,3.5,3.5,84,0.00,CLR,,0.00,WeatherDisplay:10.37,2013-01-08 12:23:00,
2013-01-08 06:29:00,26.8,22.6,30.16,South,190,3.5,3.5,84,0.00,CLR,,0.00,WeatherDisplay:10.37,2013-01-08 12:29:00,
2013-01-08 06:34:00,26.7,22.5,30.16,SSW,192,0.0,0.0,84,0.00,CLR,,0.00,WeatherDisplay:10.37,2013-01-08 12:34:00,
2013-01-08 06:39:00,26.8,22.9,30.16,South,185,4.6,4.6,85,0.00,CLR,,0.00,WeatherDisplay:10.37,2013-01-08 12:39:00,
2013-01-08 06:44:00,26.7,22.5,30.16,South,181,1.0,1.3,84,0.00,CLR,,0.00,WeatherDisplay:10.37,2013-01-08 12:44:00,
2013-01-08 06:50:00,26.5,22.3,30.16,South,182,3.5,3.5,84,0.00,CLR,,0.00,WeatherDisplay:10.37,2013-01-08 12:50:00,
2013-01-08 06:55:00,26.3,22.1,30.16,South,178,4.0,4.0,84,0.00,CLR,,0.00,WeatherDisplay:10.37,2013-01-08 12:55:00,
2013-01-08 07:00:00,26.2,22.0,30.17,SSE,150,4.6,4.6,84,0.00,CLR,,0.00,WeatherDisplay:10.37,2013-01-08 13:00:00,
2013-01-08 07:05:00,26.1,21.9,30.17,South,179,3.5,3.5,84,0.00,CLR,,0.00,WeatherDisplay:10.37,2013-01-08 13:05:00,
2013-01-08 07:10:00,25.9,22.0,30.17,South,180,4.6,4.6,85,0.00,CLR,,0.00,WeatherDisplay:10.37,2013-01-08 13:10:00,
2013-01-08 07:15:00,25.8,21.9,30.17,South,175,0.0,0.0,85,0.00,CLR,,0.00,WeatherDisplay:10.37,2013-01-08 13:15:00,
2013-01-08 07:21:00,25.7,21.8,30.17,SSW,196,7.0,7.0,85,0.00,CLR,,0.00,WeatherDisplay:10.37,2013-01-08 13:21:00,
2013-01-08 07:26:00,25.7,21.8,30.17,South,175,3.5,3.5,85,0.00,CLR,,0.00,WeatherDisplay:10.37,2013-01-08 13:26:00,
2013-01-08 07:31:00,25.7,21.8,30.18,South,190,4.6,4.6,85,0.00,CLR,,0.00,WeatherDisplay:10.37,2013-01-08 13:31:00,
2013-01-08 07:36:00,25.7,21.8,30.17,SSW,198,5.0,5.0,85,0.00,CLR,,0.00,WeatherDisplay:10.37,2013-01-08 13:36:00,
2013-01-08 07:41:00,25.9,22.0,30.18,SSE,165,3.5,3.5,85,0.00,CLR,,0.00,WeatherDisplay:10.37,2013-01-08 13:41:00,
2013-01-08 07:46:00,26.1,22.2,30.18,South,184,4.6,4.6,85,0.00,CLR,,0.00,WeatherDisplay:10.37,2013-01-08 13:46:00,
2013-01-08 07:51:00,26.3,22.7,30.18,SSE,168,5.8,5.8,86,0.00,CLR,,0.00,WeatherDisplay:10.37,2013-01-08 13:51:00,
2013-01-08 07:57:00,26.7,23.1,30.18,SSE,166,2.3,2.3,86,0.00,CLR,,0.00,WeatherDisplay:10.37,2013-01-08 13:57:00,
2013-01-08 08:02:00,26.8,22.9,30.18,South,171,3.5,3.5,85,0.00,CLR,,0.00,WeatherDisplay:10.37,2013-01-08 14:02:00,
2013-01-08 08:07:00,26.9,23.0,30.18,SSE,151,2.3,2.3,85,0.00,CLR,,0.00,WeatherDisplay:10.37,2013-01-08 14:07:00,
2013-01-08 08:12:00,27.1,23.2,30.18,South,176,4.6,4.6,85,0.00,CLR,,0.00,WeatherDisplay:10.37,2013-01-08 14:12:00,
2013-01-08 08:17:00,27.3,23.4,30.18,South,176,4.6,4.6,85,0.00,CLR,,0.00,WeatherDisplay:10.37,2013-01-08 14:17:00,
2013-01-08 08:23:00,27.5,23.6,30.18,South,182,3.5,3.5,85,0.00,CLR,,0.00,WeatherDisplay:10.37,2013-01-08 14:23:00,
2013-01-08 08:28:00,27.8,23.9,30.19,SSW,199,3.5,3.5,85,0.00,CLR,,0.00,WeatherDisplay:10.37,2013-01-08 14:28:00,
2013-01-08 08:33:00,28.1,24.2,30.19,South,176,3.5,3.5,85,0.00,CLR,,0.00,WeatherDisplay:10.37,2013-01-08 14:33:00,
2013-01-08 08:38:00,28.5,24.3,30.19,South,191,6.9,6.9,84,0.00,CLR,,0.00,WeatherDisplay:10.37,2013-01-08 14:38:00,
2013-01-08 08:43:00,29.1,24.9,30.19,South,190,9.2,9.2,84,0.00,CLR,,0.00,WeatherDisplay:10.37,2013-01-08 14:43:00,
2013-01-08 08:48:00,29.7,25.5,30.19,South,177,4.6,4.6,84,0.00,CLR,,0.00,WeatherDisplay:10.37,2013-01-08 14:48:00,
2013-01-08 08:53:00,30.2,25.7,30.19,South,184,9.2,9.2,83,0.00,CLR,,0.00,WeatherDisplay:10.37,2013-01-08 14:53:00,
2013-01-08 08:58:00,30.6,26.1,30.19,SSE,156,6.0,6.0,83,0.00,CLR,,0.00,WeatherDisplay:10.37,2013-01-08 14:58:00,
2013-01-08 09:04:00,30.9,26.1,30.18,South,171,4.6,4.6,82,0.00,CLR,,0.00,WeatherDisplay:10.37,2013-01-08 15:04:00,
2013-01-08 09:09:00,31.1,26.2,30.19,SSW,198,3.5,3.5,82,0.00,CLR,,0.00,WeatherDisplay:10.37,2013-01-08 15:09:00,
2013-01-08 09:14:00,31.3,26.1,30.18,SSW,199,4.6,4.6,81,0.00,CLR,,0.00,WeatherDisplay:10.37,2013-01-08 15:14:00,
2013-01-08 09:19:00,31.6,26.4,30.19,WSW,240,4.6,4.6,81,0.00,CLR,,0.00,WeatherDisplay:10.37,2013-01-08 15:19:00,
2013-01-08 09:24:00,31.9,26.4,30.19,SW,235,3.5,3.5,80,0.00,CLR,,0.00,WeatherDisplay:10.37,2013-01-08 15:24:00,
2013-01-08 09:29:00,32.2,26.7,30.19,WSW,248,4.6,4.6,80,0.00,CLR,,0.00,WeatherDisplay:10.37,2013-01-08 15:29:00,
2013-01-08 09:34:00,32.6,26.8,30.19,SW,234,3.5,3.5,79,0.00,CLR,,0.00,WeatherDisplay:10.37,2013-01-08 15:34:00,
2013-01-08 09:40:00,33.0,27.2,30.19,SW,233,5.8,5.8,79,0.00,CLR,,0.00,WeatherDisplay:10.37,2013-01-08 15:40:00,
2013-01-08 09:45:00,33.0,26.9,30.19,SW,219,4.6,4.6,78,0.00,CLR,,0.00,WeatherDisplay:10.37,2013-01-08 15:45:00,
2013-01-08 09:50:00,33.0,26.9,30.19,SW,234,5.8,5.8,78,0.00,CLR,,0.00,WeatherDisplay:10.37,2013-01-08 15:50:00,
2013-01-08 09:55:00,33.1,27.0,30.20,SW,230,5.0,5.0,78,0.00,CLR,,0.00,WeatherDisplay:10.37,2013-01-08 15:55:00,
2013-01-08 10:00:00,33.2,27.1,30.20,SSW,213,6.9,6.9,78,0.00,CLR,,0.00,WeatherDisplay:10.37,2013-01-08 16:00:00,
2013-01-08 10:05:00,33.5,27.4,30.19,SSW,196,5.8,5.8,78,0.00,CLR,,0.00,WeatherDisplay:10.37,2013-01-08 16:05:00,
2013-01-08 10:10:00,33.8,27.7,30.19,South,186,5.8,5.8,78,0.00,CLR,,0.00,WeatherDisplay:10.37,2013-01-08 16:10:00,
2013-01-08 10:15:00,34.1,27.6,30.19,South,186,5.8,5.8,77,0.00,CLR,,0.00,WeatherDisplay:10.37,2013-01-08 16:15:00,
2013-01-08 10:21:00,34.2,27.7,30.19,SW,226,9.2,9.2,77,0.00,CLR,,0.00,WeatherDisplay:10.37,2013-01-08 16:21:00,
2013-01-08 10:26:00,34.3,27.5,30.19,SSW,205,5.8,5.8,76,0.00,CLR,,0.00,WeatherDisplay:10.37,2013-01-08 16:26:00,
2013-01-08 10:31:00,34.4,27.6,30.19,SSW,200,3.5,3.5,76,0.00,CLR,,0.00,WeatherDisplay:10.37,2013-01-08 16:31:00,
2013-01-08 10:36:00,34.4,27.6,30.19,SSW,212,3.5,3.5,76,0.00,CLR,,0.00,WeatherDisplay:10.37,2013-01-08 16:36:00,
2013-01-08 10:41:00,34.6,27.8,30.19,SW,215,5.8,5.8,76,0.00,CLR,,0.00,WeatherDisplay:10.37,2013-01-08 16:41:00,
2013-01-08 10:46:00,35.1,28.3,30.19,SW,227,3.5,3.5,76,0.00,CLR,,0.00,WeatherDisplay:10.37,2013-01-08 16:46:00,
2013-01-08 10:52:00,35.5,28.4,30.19,SW,229,5.8,5.8,75,0.00,CLR,,0.00,WeatherDisplay:10.37,2013-01-08 16:52:00,
2013-01-08 10:57:00,35.7,28.6,30.18,SW,221,3.5,3.5,75,0.00,CLR,,0.00,WeatherDisplay:10.37,2013-01-08 16:57:00,
2013-01-08 11:02:00,35.9,28.4,30.18,SSW,201,5.8,5.8,74,0.00,CLR,,0.00,WeatherDisplay:10.37,2013-01-08 17:02:00,
2013-01-08 11:07:00,36.1,28.6,30.18,South,173,6.9,6.9,74,0.00,CLR,,0.00,WeatherDisplay:10.37,2013-01-08 17:07:00,
2013-01-08 11:12:00,36.7,29.2,30.18,SW,226,10.0,10.0,74,0.00,CLR,,0.00,WeatherDisplay:10.37,2013-01-08 17:12:00,
2013-01-08 11:18:00,37.0,29.1,30.17,SW,234,5.8,5.8,73,0.00,CLR,,0.00,WeatherDisplay:10.37,2013-01-08 17:18:00,
2013-01-08 11:23:00,37.4,29.5,30.17,SW,225,10.4,10.4,73,0.00,CLR,,0.00,WeatherDisplay:10.37,2013-01-08 17:23:00,
2013-01-08 11:28:00,37.6,29.0,30.17,SSW,200,5.8,5.8,71,0.00,CLR,,0.00,WeatherDisplay:10.37,2013-01-08 17:28:00,
2013-01-08 11:33:00,37.5,28.9,30.17,SSW,203,11.5,11.5,71,0.00,CLR,,0.00,WeatherDisplay:10.37,2013-01-08 17:33:00,
2013-01-08 11:38:00,37.6,29.0,30.17,South,186,12.7,12.7,71,0.00,CLR,,0.00,WeatherDisplay:10.37,2013-01-08 17:38:00,
2013-01-08 11:43:00,37.7,29.1,30.16,South,188,12.7,12.7,71,0.00,CLR,,0.00,WeatherDisplay:10.37,2013-01-08 17:43:00,
2013-01-08 11:49:00,37.9,29.0,30.16,SSW,195,9.2,9.2,70,0.00,CLR,,0.00,WeatherDisplay:10.37,2013-01-08 17:49:00,
2013-01-08 11:54:00,38.0,29.1,30.16,South,182,12.7,12.7,70,0.00,CLR,,0.00,WeatherDisplay:10.37,2013-01-08 17:54:00,
2013-01-08 11:59:00,38.2,29.3,30.16,SSW,205,14.0,14.0,70,0.00,CLR,,0.00,WeatherDisplay:10.37,2013-01-08 17:59:00,
2013-01-08 12:04:00,38.5,29.6,30.15,SSW,210,6.9,6.9,70,0.00,CLR,,0.00,WeatherDisplay:10.37,2013-01-08 18:04:00,
2013-01-08 12:09:00,38.6,29.3,30.15,SW,234,8.1,8.1,69,0.00,CLR,,0.00,WeatherDisplay:10.37,2013-01-08 18:09:00,
2013-01-08 12:14:00,38.7,29.4,30.15,SSE,168,11.5,11.5,69,0.00,CLR,,0.00,WeatherDisplay:10.37,2013-01-08 18:14:00,
2013-01-08 12:20:00,38.8,29.5,30.15,SSW,213,9.0,9.0,69,0.00,CLR,,0.00,WeatherDisplay:10.37,2013-01-08 18:20:00,
2013-01-08 12:25:00,39.0,29.7,30.14,SSW,193,10.4,10.4,69,0.00,CLR,,0.00,WeatherDisplay:10.37,2013-01-08 18:25:00,
2013-01-08 12:30:00,39.1,29.4,30.14,SSE,163,5.8,5.8,68,0.00,CLR,,0.00,WeatherDisplay:10.37,2013-01-08 18:30:00,
2013-01-08 12:35:00,39.3,29.3,30.14,South,190,13.8,13.8,67,0.00,CLR,,0.00,WeatherDisplay:10.37,2013-01-08 18:35:00,
2013-01-08 12:40:00,39.4,29.7,30.14,SSW,210,5.8,5.8,68,0.00,CLR,,0.00,WeatherDisplay:10.37,2013-01-08 18:40:00,
2013-01-08 12:45:00,39.6,29.9,30.14,SW,223,7.0,7.0,68,0.00,CLR,,0.00,WeatherDisplay:10.37,2013-01-08 18:45:00,
2013-01-08 12:51:00,40.1,30.4,30.14,South,182,7.0,7.0,68,0.00,CLR,,0.00,WeatherDisplay:10.37,2013-01-08 18:51:00,
2013-01-08 12:56:00,40.1,30.0,30.14,SW,219,6.9,6.9,67,0.00,CLR,,0.00,WeatherDisplay:10.37,2013-01-08 18:56:00,
2013-01-08 13:01:00,39.7,30.0,30.14,South,180,6.9,6.9,68,0.00,CLR,,0.00,WeatherDisplay:10.37,2013-01-08 19:01:00,
2013-01-08 13:06:00,39.7,30.0,30.14,SSW,196,9.2,9.2,68,0.00,CLR,,0.00,WeatherDisplay:10.37,2013-01-08 19:06:00,
2013-01-08 13:11:00,40.2,30.5,30.14,SSW,201,5.8,5.8,68,0.00,CLR,,0.00,WeatherDisplay:10.37,2013-01-08 19:11:00,
2013-01-08 13:16:00,40.4,30.7,30.14,SSE,165,5.8,5.8,68,0.00,CLR,,0.00,WeatherDisplay:10.37,2013-01-08 19:16:00,
2013-01-08 13:22:00,40.3,30.6,30.13,South,175,5.0,5.0,68,0.00,CLR,,0.00,WeatherDisplay:10.37,2013-01-08 19:22:00,
2013-01-08 13:27:00,39.7,30.0,30.13,SSE,165,9.2,9.2,68,0.00,CLR,,0.00,WeatherDisplay:10.37,2013-01-08 19:27:00,
2013-01-08 13:32:00,39.7,30.0,30.14,South,173,11.5,11.5,68,0.00,CLR,,0.00,WeatherDisplay:10.37,2013-01-08 19:32:00,
2013-01-08 13:37:00,39.5,30.2,30.14,South,186,10.4,10.4,69,0.00,CLR,,0.00,WeatherDisplay:10.37,2013-01-08 19:37:00,
2013-01-08 13:42:00,39.3,30.0,30.14,SSE,152,9.2,9.2,69,0.00,CLR,,0.00,WeatherDisplay:10.37,2013-01-08 19:42:00,
2013-01-08 13:47:00,39.7,30.4,30.14,SSE,168,5.8,5.8,69,0.00,CLR,,0.00,WeatherDisplay:10.37,2013-01-08 19:47:00,
2013-01-08 13:53:00,39.9,30.5,30.14,SE,146,6.0,6.0,69,0.00,CLR,,0.00,WeatherDisplay:10.37,2013-01-08 19:53:00,
2013-01-08 13:58:00,40.1,30.7,30.14,South,178,9.2,9.2,69,0.00,CLR,,0.00,WeatherDisplay:10.37,2013-01-08 19:58:00,
2013-01-08 14:03:00,40.2,30.5,30.13,SE,146,3.5,3.5,68,0.00,CLR,,0.00,WeatherDisplay:10.37,2013-01-08 20:03:00,
2013-01-08 14:08:00,40.3,30.6,30.13,SSE,147,5.8,5.8,68,0.00,CLR,,0.00,WeatherDisplay:10.37,2013-01-08 20:08:00,
2013-01-08 14:13:00,40.3,30.6,30.13,South,184,3.5,3.5,68,0.00,CLR,,0.00,WeatherDisplay:10.37,2013-01-08 20:13:00,
2013-01-08 14:19:00,40.5,30.8,30.14,SSE,167,3.5,3.5,68,0.00,CLR,,0.00,WeatherDisplay:10.37,2013-01-08 20:19:00,
2013-01-08 14:23:00,40.6,30.9,30.14,SSW,213,9.2,9.2,68,0.00,CLR,,0.00,WeatherDisplay:10.37,2013-01-08 20:23:00,
2013-01-08 14:29:00,40.8,30.7,30.14,South,182,0.0,0.0,67,0.00,CLR,,0.00,WeatherDisplay:10.37,2013-01-08 20:29:00,
2013-01-08 14:34:00,40.8,30.7,30.14,South,173,1.2,0.0,67,0.00,CLR,,0.00,WeatherDisplay:10.37,2013-01-08 20:34:00,
2013-01-08 14:39:00,40.7,30.6,30.14,SSE,163,5.8,5.8,67,0.00,CLR,,0.00,WeatherDisplay:10.37,2013-01-08 20:39:00,
2013-01-08 14:44:00,40.4,30.3,30.14,SSE,160,8.1,8.1,67,0.00,CLR,,0.00,WeatherDisplay:10.37,2013-01-08 20:44:00,
2013-01-08 14:49:00,40.4,30.7,30.14,South,183,3.5,3.5,68,0.00,CLR,,0.00,WeatherDisplay:10.37,2013-01-08 20:49:00,
2013-01-08 14:54:00,40.4,30.7,30.14,SSW,199,11.5,11.5,68,0.00,CLR,,0.00,WeatherDisplay:10.37,2013-01-08 20:54:00,
2013-01-08 14:59:00,40.4,30.7,30.14,SSW,202,6.0,6.0,68,0.00,CLR,,0.00,WeatherDisplay:10.37,2013-01-08 20:59:00,
2013-01-08 15:05:00,40.2,30.5,30.14,SSE,167,2.3,2.3,68,0.00,CLR,,0.00,WeatherDisplay:10.37,2013-01-08 21:05:00,
2013-01-08 15:10:00,40.3,30.9,30.13,SSW,197,9.2,9.2,69,0.00,CLR,,0.00,WeatherDisplay:10.37,2013-01-08 21:10:00,
2013-01-08 15:15:00,40.2,30.8,30.13,South,178,9.2,9.2,69,0.00,CLR,,0.00,WeatherDisplay:10.37,2013-01-08 21:15:00,
2013-01-08 15:20:00,40.3,30.9,30.14,SSE,150,4.6,4.6,69,0.00,CLR,,0.00,WeatherDisplay:10.37,2013-01-08 21:20:00,
2013-01-08 15:25:00,40.2,30.8,30.13,SSW,199,7.0,7.0,69,0.00,CLR,,0.00,WeatherDisplay:10.37,2013-01-08 21:25:00,
2013-01-08 15:30:00,40.1,30.7,30.13,SSE,152,4.6,4.6,69,0.00,CLR,,0.00,WeatherDisplay:10.37,2013-01-08 21:30:00,
2013-01-08 15:35:00,40.1,30.7,30.13,SE,146,5.8,5.8,69,0.00,CLR,,0.00,WeatherDisplay:10.37,2013-01-08 21:35:00,
2013-01-08 15:40:00,40.0,30.6,30.13,South,180,9.2,9.2,69,0.00,CLR,,0.00,WeatherDisplay:10.37,2013-01-08 21:40:00,
2013-01-08 15:45:00,39.8,30.5,30.13,SSE,162,9.2,9.2,69,0.00,CLR,,0.00,WeatherDisplay:10.37,2013-01-08 21:45:00,
2013-01-08 15:51:00,39.7,30.4,30.13,South,188,12.0,12.0,69,0.00,CLR,,0.00,WeatherDisplay:10.37,2013-01-08 21:51:00,
2013-01-08 15:56:00,39.6,30.3,30.12,South,171,5.8,5.8,69,0.00,CLR,,0.00,WeatherDisplay:10.37,2013-01-08 21:56:00,
2013-01-08 16:01:00,39.4,30.4,30.12,SSE,150,2.0,2.0,70,0.00,CLR,,0.00,WeatherDisplay:10.37,2013-01-08 22:01:00,
2013-01-08 16:06:00,39.1,30.1,30.12,SSE,160,3.5,3.5,70,0.00,CLR,,0.00,WeatherDisplay:10.37,2013-01-08 22:06:00,
2013-01-08 16:11:00,38.9,29.9,30.13,South,182,6.9,6.9,70,0.00,CLR,,0.00,WeatherDisplay:10.37,2013-01-08 22:11:00,
2013-01-08 16:17:00,38.8,29.8,30.13,SSE,165,3.5,3.5,70,0.00,CLR,,0.00,WeatherDisplay:10.37,2013-01-08 22:17:00,
2013-01-08 16:22:00,38.6,30.0,30.12,SSE,165,4.6,4.6,71,0.00,CLR,,0.00,WeatherDisplay:10.37,2013-01-08 22:22:00,
2013-01-08 16:27:00,38.5,29.9,30.12,South,179,4.6,4.6,71,0.00,CLR,,0.00,WeatherDisplay:10.37,2013-01-08 22:27:00,
2013-01-08 16:32:00,38.4,29.8,30.12,South,188,0.0,0.7,71,0.00,CLR,,0.00,WeatherDisplay:10.37,2013-01-08 22:32:00,
2013-01-08 16:37:00,38.1,29.9,30.12,South,180,0.0,0.0,72,0.00,CLR,,0.00,WeatherDisplay:10.37,2013-01-08 22:37:00,
2013-01-08 16:43:00,37.9,29.7,30.12,SE,145,3.5,3.5,72,0.00,CLR,,0.00,WeatherDisplay:10.37,2013-01-08 22:43:00,
2013-01-08 16:48:00,37.9,29.7,30.12,South,182,10.4,10.4,72,0.00,CLR,,0.00,WeatherDisplay:10.37,2013-01-08 22:48:00,
2013-01-08 16:53:00,37.8,29.6,30.12,South,175,6.9,6.9,72,0.00,CLR,,0.00,WeatherDisplay:10.37,2013-01-08 22:53:00,
2013-01-08 16:58:00,37.7,29.8,30.12,South,175,5.8,5.8,73,0.00,CLR,,0.00,WeatherDisplay:10.37,2013-01-08 22:58:00,
2013-01-08 17:56:00,36.5,29.0,30.13,South,177,11.5,11.5,74,0.00,CLR,,0.00,WeatherDisplay:10.37,2013-01-08 23:56:00,
2013-01-08 18:01:00,36.4,29.2,30.12,South,175,5.8,5.8,75,0.00,CLR,,0.00,WeatherDisplay:10.37,2013-01-09 00:01:00,
2013-01-08 18:06:00,36.4,29.2,30.12,South,175,11.5,11.5,75,0.00,CLR,,0.00,WeatherDisplay:10.37,2013-01-09 00:06:00,
2013-01-08 18:11:00,36.5,29.3,30.13,South,184,6.9,6.9,75,0.00,CLR,,0.00,WeatherDisplay:10.37,2013-01-09 00:11:00,
2013-01-08 18:21:00,36.1,28.9,30.13,South,175,9.2,9.2,75,0.00,CLR,,0.00,WeatherDisplay:10.37,2013-01-09 00:21:00,
2013-01-08 18:27:00,35.9,29.1,30.13,SE,124,9.2,9.2,76,0.00,CLR,,0.00,WeatherDisplay:10.37,2013-01-09 00:27:00,
2013-01-08 18:32:00,35.8,29.0,30.14,South,180,9.2,9.2,76,0.00,CLR,,0.00,WeatherDisplay:10.37,2013-01-09 00:32:00,
2013-01-08 18:37:00,35.7,28.9,30.14,South,187,11.5,11.5,76,0.00,CLR,,0.00,WeatherDisplay:10.37,2013-01-09 00:37:00,
2013-01-08 18:42:00,35.6,28.8,30.14,SSE,167,9.2,9.2,76,0.00,CLR,,0.00,WeatherDisplay:10.37,2013-01-09 00:42:00,
2013-01-08 18:47:00,35.7,28.9,30.13,South,171,5.8,5.8,76,0.00,CLR,,0.00,WeatherDisplay:10.37,2013-01-09 00:47:00,
2013-01-08 18:52:00,35.7,28.9,30.14,South,183,5.8,5.8,76,0.00,CLR,,0.00,WeatherDisplay:10.37,2013-01-09 00:52:00,
2013-01-08 18:58:00,35.7,29.2,30.14,South,177,4.6,4.6,77,0.00,CLR,,0.00,WeatherDisplay:10.37,2013-01-09 00:58:00,
2013-01-08 19:03:00,35.6,29.1,30.13,South,169,4.0,4.0,77,0.00,CLR,,0.00,WeatherDisplay:10.37,2013-01-09 01:03:00,
2013-01-08 19:08:00,35.6,29.1,30.13,SSE,159,6.9,6.9,77,0.00,CLR,,0.00,WeatherDisplay:10.37,2013-01-09 01:08:00,
2013-01-08 19:13:00,35.5,29.0,30.13,South,188,4.0,4.0,77,0.00,CLR,,0.00,WeatherDisplay:10.37,2013-01-09 01:13:00,
2013-01-08 19:18:00,35.5,29.0,30.12,SSE,165,6.9,6.9,77,0.00,CLR,,0.00,WeatherDisplay:10.37,2013-01-09 01:18:00,
2013-01-08 19:23:00,35.6,29.1,30.12,South,169,4.6,4.6,77,0.00,CLR,,0.00,WeatherDisplay:10.37,2013-01-09 01:23:00,
2013-01-08 19:28:00,35.6,29.1,30.12,South,171,6.9,6.9,77,0.00,CLR,,0.00,WeatherDisplay:10.37,2013-01-09 01:28:00,
2013-01-08 19:34:00,35.8,29.3,30.12,SSE,158,9.2,9.2,77,0.00,CLR,,0.00,WeatherDisplay:10.37,2013-01-09 01:34:00,
2013-01-08 19:39:00,35.9,29.4,30.12,South,186,9.2,9.2,77,0.00,CLR,,0.00,WeatherDisplay:10.37,2013-01-09 01:39:00,
2013-01-08 19:44:00,36.2,29.7,30.12,SSE,150,6.9,6.9,77,0.00,CLR,,0.00,WeatherDisplay:10.37,2013-01-09 01:44:00,
2013-01-08 19:49:00,36.2,29.7,30.12,South,179,9.0,9.0,77,0.00,CLR,,0.00,WeatherDisplay:10.37,2013-01-09 01:49:00,
2013-01-08 19:54:00,36.3,29.5,30.12,SSW,208,3.5,3.5,76,0.00,CLR,,0.00,WeatherDisplay:10.37,2013-01-09 01:54:00,
2013-01-08 19:59:00,36.3,29.8,30.12,SSE,155,9.2,9.2,77,0.00,CLR,,0.00,WeatherDisplay:10.37,2013-01-09 01:59:00,
2013-01-08 20:04:00,36.4,29.9,30.12,SSE,154,9.2,9.2,77,0.00,CLR,,0.00,WeatherDisplay:10.37,2013-01-09 02:04:00,
2013-01-08 20:09:00,36.5,29.7,30.12,SE,145,10.4,10.4,76,0.00,CLR,,0.00,WeatherDisplay:10.37,2013-01-09 02:09:00,
2013-01-08 20:14:00,36.6,29.7,30.12,SSE,152,10.4,10.4,76,0.00,CLR,,0.00,WeatherDisplay:10.37,2013-01-09 02:14:00,
2013-01-08 20:20:00,36.6,29.7,30.12,South,175,6.9,6.9,76,0.00,CLR,,0.00,WeatherDisplay:10.37,2013-01-09 02:20:00,
2013-01-08 20:25:00,36.6,29.7,30.12,South,187,5.0,5.0,76,0.00,CLR,,0.00,WeatherDisplay:10.37,2013-01-09 02:25:00,
2013-01-08 20:30:00,36.6,30.1,30.12,SSE,164,3.5,3.5,77,0.00,CLR,,0.00,WeatherDisplay:10.37,2013-01-09 02:30:00,
2013-01-08 20:35:00,36.5,30.0,30.12,SSE,157,6.9,6.9,77,0.00,CLR,,0.00,WeatherDisplay:10.37,2013-01-09 02:35:00,
2013-01-08 20:40:00,36.4,29.9,30.12,SSW,192,3.5,3.5,77,0.00,CLR,,0.00,WeatherDisplay:10.37,2013-01-09 02:40:00,
2013-01-08 20:45:00,36.4,29.9,30.12,SSE,151,3.5,3.5,77,0.00,CLR,,0.00,WeatherDisplay:10.37,2013-01-09 02:45:00,
2013-01-08 20:50:00,36.5,30.0,30.12,SSE,161,3.5,3.5,77,0.00,CLR,,0.00,WeatherDisplay:10.37,2013-01-09 02:50:00,
2013-01-08 20:55:00,36.5,30.0,30.12,SSE,165,9.2,9.2,77,0.00,CLR,,0.00,WeatherDisplay:10.37,2013-01-09 02:55:00,
2013-01-08 21:00:00,36.6,30.1,30.12,SSE,157,6.9,6.9,77,0.00,CLR,,0.00,WeatherDisplay:10.37,2013-01-09 03:00:00,
2013-01-08 21:05:00,36.7,30.2,30.12,SSE,167,11.5,11.5,77,0.00,CLR,,0.00,WeatherDisplay:10.37,2013-01-09 03:05:00,
2013-01-08 21:11:00,36.6,30.1,30.12,SSE,156,3.5,3.5,77,0.00,CLR,,0.00,WeatherDisplay:10.37,2013-01-09 03:11:00,
2013-01-08 21:16:00,36.7,30.2,30.12,South,183,4.6,4.6,77,0.00,CLR,,0.00,WeatherDisplay:10.37,2013-01-09 03:16:00,
2013-01-08 21:21:00,36.8,30.3,30.12,South,178,9.2,9.2,77,0.00,CLR,,0.00,WeatherDisplay:10.37,2013-01-09 03:21:00,
2013-01-08 21:26:00,36.7,30.2,30.12,SSE,157,7.0,7.0,77,0.00,CLR,,0.00,WeatherDisplay:10.37,2013-01-09 03:26:00,
2013-01-08 21:31:00,36.9,30.4,30.12,SSE,157,5.8,5.8,77,0.00,CLR,,0.00,WeatherDisplay:10.37,2013-01-09 03:31:00,
2013-01-08 21:36:00,36.8,30.3,30.12,South,187,4.6,4.6,77,0.00,CLR,,0.00,WeatherDisplay:10.37,2013-01-09 03:36:00,
2013-01-08 21:41:00,36.9,30.4,30.12,SSE,163,8.1,8.1,77,0.00,CLR,,0.00,WeatherDisplay:10.37,2013-01-09 03:41:00,
2013-01-08 21:46:00,37.0,30.8,30.12,South,177,11.5,11.5,78,0.00,CLR,,0.00,WeatherDisplay:10.37,2013-01-09 03:46:00,
2013-01-08 21:52:00,37.1,30.9,30.12,SSE,164,6.9,6.9,78,0.00,CLR,,0.00,WeatherDisplay:10.37,2013-01-09 03:52:00,
2013-01-08 21:57:00,37.3,31.1,30.12,SSE,168,5.8,5.8,78,0.00,CLR,,0.00,WeatherDisplay:10.37,2013-01-09 03:57:00,
2013-01-08 22:02:00,37.5,31.3,30.12,SSE,158,7.0,7.0,78,0.00,CLR,,0.00,WeatherDisplay:10.37,2013-01-09 04:02:00,
2013-01-08 22:07:00,37.7,31.1,30.11,SSE,165,10.4,10.4,77,0.00,CLR,,0.00,WeatherDisplay:10.37,2013-01-09 04:07:00,
2013-01-08 22:12:00,37.8,31.2,30.12,South,174,6.9,6.9,77,0.00,CLR,,0.00,WeatherDisplay:10.37,2013-01-09 04:12:00,
2013-01-08 22:17:00,38.0,31.4,30.12,SSE,156,6.9,6.9,77,0.00,CLR,,0.00,WeatherDisplay:10.37,2013-01-09 04:17:00,
2013-01-08 22:23:00,38.3,31.7,30.11,South,178,6.9,6.9,77,0.00,CLR,,0.00,WeatherDisplay:10.37,2013-01-09 04:23:00,
2013-01-08 22:28:00,38.5,31.9,30.11,South,184,15.0,15.0,77,0.00,CLR,,0.00,WeatherDisplay:10.37,2013-01-09 04:28:00,
2013-01-08 22:33:00,38.7,31.8,30.11,SSE,166,11.5,11.5,76,0.00,CLR,,0.00,WeatherDisplay:10.37,2013-01-09 04:33:00,
2013-01-08 22:38:00,38.9,32.0,30.11,South,180,10.4,10.4,76,0.00,CLR,,0.00,WeatherDisplay:10.37,2013-01-09 04:38:00,
2013-01-08 22:44:00,39.0,32.1,30.11,South,186,11.5,11.5,76,0.00,CLR,,0.00,WeatherDisplay:10.37,2013-01-09 04:44:00,
2013-01-08 22:49:00,38.9,32.0,30.12,SSE,161,6.9,6.9,76,0.00,CLR,,0.00,WeatherDisplay:10.37,2013-01-09 04:49:00,
2013-01-08 22:54:00,38.9,32.0,30.12,South,185,5.8,5.8,76,0.00,CLR,,0.00,WeatherDisplay:10.37,2013-01-09 04:54:00,
2013-01-08 22:59:00,38.9,32.0,30.12,SSE,153,11.5,11.5,76,0.00,CLR,,0.00,WeatherDisplay:10.37,2013-01-09 04:59:00,
2013-01-08 23:00:00,38.9,32.0,30.11,South,178,5.8,5.8,76,0.00,CLR,,0.00,WeatherDisplay:10.37,2013-01-09 05:00:00,
2013-01-08 23:01:00,38.9,32.0,30.11,SSW,200,5.8,5.8,76,0.00,CLR,,0.00,WeatherDisplay:10.37,2013-01-09 05:01:00,
2013-01-08 23:03:00,38.9,32.0,30.11,SSE,161,9.2,9.2,76,0.00,CLR,,0.00,WeatherDisplay:10.37,2013-01-09 05:03:00,
2013-01-08 23:08:00,38.8,31.9,30.11,SSE,163,10.4,10.4,76,0.00,CLR,,0.00,WeatherDisplay:10.37,2013-01-09 05:08:00,
2013-01-08 23:13:00,38.7,31.8,30.11,South,181,10.4,10.4,76,0.00,CLR,,0.00,WeatherDisplay:10.37,2013-01-09 05:13:00,
2013-01-08 23:19:00,38.6,32.0,30.11,South,178,6.0,6.0,77,0.00,CLR,,0.00,WeatherDisplay:10.37,2013-01-09 05:19:00,
2013-01-08 23:24:00,38.4,31.8,30.11,SSW,202,6.9,6.9,77,0.00,CLR,,0.00,WeatherDisplay:10.37,2013-01-09 05:24:00,
2013-01-08 23:29:00,38.3,31.7,30.11,South,176,11.5,11.5,77,0.00,CLR,,0.00,WeatherDisplay:10.37,2013-01-09 05:29:00,
2013-01-08 23:34:00,38.3,31.7,30.11,SSW,199,11.5,11.5,77,0.00,CLR,,0.00,WeatherDisplay:10.37,2013-01-09 05:34:00,
2013-01-08 23:39:00,38.4,31.8,30.10,South,177,9.2,9.2,77,0.00,CLR,,0.00,WeatherDisplay:10.37,2013-01-09 05:39:00,
2013-01-08 23:44:00,38.6,32.0,30.10,SE,142,10.4,10.4,77,0.00,CLR,,0.00,WeatherDisplay:10.37,2013-01-09 05:44:00,
2013-01-08 23:49:00,38.9,32.3,30.10,SSW,202,10.4,10.4,77,0.00,CLR,,0.00,WeatherDisplay:10.37,2013-01-09 05:49:00,
2013-01-08 23:54:00,39.3,32.7,30.10,SSW,196,10.4,10.4,77,0.00,CLR,,0.00,WeatherDisplay:10.37,2013-01-09 05:54:00,
2013-01-08 23:59:00,39.6,32.7,30.09,SSW,192,9.2,9.2,76,0.00,CLR,,0.00,WeatherDisplay:10.37,2013-01-09 05:59:00,